Time;durP1;ratioP1;P1;durP2;ratioP2;P2;SDS_P1;SDS_P2;PMS_P1;PMS_P2;Temp;Humidity;BMP_temperature;BMP_pressure;BME280_temperature;BME280_humidity;BME280_pressure;Samples;Min_cycle;Max_cycle;Signal;HPM_P1;HPM_P2
2024/01/18 00:01:51;;;;;;;8.48;4.05;;;;;;;18.20;36.45;99234.66;4967490;28;20042;-69
2024/01/18 00:04:17;;;;;;;8.18;3.97;;;;;;;18.11;36.13;99224.13;4966996;28;20534;-69
2024/01/18 00:06:42;;;;;;;8.00;4.07;;;;;;;18.08;36.44;99224.44;4967986;28;20041;-69
2024/01/18 00:09:08;;;;;;;9.18;4.10;;;;;;;18.13;36.22;99237.13;4968006;28;20487;-68
2024/01/18 00:11:33;;;;;;;8.02;3.85;;;;;;;18.05;36.18;99234.50;4967813;28;20042;-69
2024/01/18 00:13:58;;;;;;;9.48;3.97;;;;;;;18.02;36.31;99245.34;4967783;28;20333;-70
2024/01/18 00:16:23;;;;;;;8.98;3.95;;;;;;;18.11;36.18;99263.66;4968109;28;20161;-72
2024/01/18 00:18:49;;;;;;;9.05;4.10;;;;;;;18.05;36.23;99252.94;4967682;28;20488;-69
2024/01/18 00:21:14;;;;;;;7.47;3.88;;;;;;;17.97;36.13;99260.84;4968118;28;20078;-69
2024/01/18 00:23:39;;;;;;;8.48;3.67;;;;;;;17.92;36.05;99263.97;4967514;28;20396;-69
2024/01/18 00:26:05;;;;;;;7.75;3.78;;;;;;;17.91;36.06;99262.31;4967571;28;20058;-69
2024/01/18 00:28:30;;;;;;;8.02;4.07;;;;;;;18.02;35.81;99285.72;4967155;28;20031;-70
2024/01/18 00:30:55;;;;;;;8.32;3.92;;;;;;;17.90;36.23;99265.94;4967703;28;20030;-70
2024/01/18 00:33:21;;;;;;;6.95;3.72;;;;;;;17.95;35.90;99276.81;4967887;28;20031;-69
2024/01/18 00:35:48;;;;;;;6.72;3.80;;;;;;;17.95;35.84;99274.19;4982689;28;20039;-68
2024/01/18 00:38:13;;;;;;;6.80;3.80;;;;;;;17.85;35.86;99262.91;4967456;28;20130;-69
2024/01/18 00:40:39;;;;;;;7.80;4.20;;;;;;;17.91;36.36;99276.31;4965534;28;20113;-68
2024/01/18 00:43:05;;;;;;;7.63;3.70;;;;;;;17.90;35.91;99282.56;4967529;28;20030;-69
2024/01/18 00:45:30;;;;;;;9.93;4.05;;;;;;;17.82;36.17;99265.91;4967259;28;20027;-69
2024/01/18 00:47:55;;;;;;;7.07;3.72;;;;;;;17.79;36.01;99269.66;4967833;28;20581;-70
2024/01/18 00:50:21;;;;;;;8.57;3.88;;;;;;;17.77;36.21;99271.66;4967215;28;20051;-68
2024/01/18 00:52:46;;;;;;;8.98;3.50;;;;;;;17.81;36.36;99280.84;4966763;28;20035;-68
2024/01/18 00:55:11;;;;;;;8.52;3.63;;;;;;;17.75;36.05;99290.25;4966876;28;20089;-68
2024/01/18 00:57:36;;;;;;;7.82;4.15;;;;;;;17.87;36.15;99301.31;4970156;28;20142;-69
2024/01/18 01:00:03;;;;;;;7.82;3.92;;;;;;;17.77;36.11;99296.16;4970708;28;20042;-69
2024/01/18 01:02:29;;;;;;;10.45;3.80;;;;;;;17.85;36.29;99305.91;4969627;28;20081;-69
2024/01/18 01:04:54;;;;;;;9.73;4.32;;;;;;;17.73;36.08;99286.09;4969655;28;20038;-70
2024/01/18 01:07:19;;;;;;;9.63;3.65;;;;;;;17.83;36.28;99307.06;4970951;28;20476;-70
2024/01/18 01:09:44;;;;;;;8.85;3.97;;;;;;;17.83;36.50;99313.16;4970744;28;20117;-70
2024/01/18 01:12:10;;;;;;;8.27;3.90;;;;;;;17.71;36.32;99293.34;4970925;28;20034;-69
2024/01/18 01:14:35;;;;;;;8.55;3.65;;;;;;;17.68;35.96;99293.66;4971015;28;20985;-70
2024/01/18 01:17:00;;;;;;;8.88;4.30;;;;;;;17.65;36.50;99292.16;4970719;28;20031;-70
2024/01/18 01:19:25;;;;;;;7.40;3.58;;;;;;;17.74;36.38;99309.66;4970917;28;20027;-70
2024/01/18 01:21:51;;;;;;;8.65;4.03;;;;;;;17.61;36.05;99287.38;4970052;28;20030;-70
2024/01/18 01:24:16;;;;;;;8.10;3.97;;;;;;;17.74;36.11;99322.84;4970097;28;20039;-69
2024/01/18 01:26:41;;;;;;;9.23;4.00;;;;;;;17.68;36.10;99320.03;4969759;28;20494;-70
2024/01/18 01:29:08;;;;;;;8.75;3.95;;;;;;;17.59;36.06;99308.59;4969590;28;20090;-69
2024/01/18 01:31:33;;;;;;;9.98;4.40;;;;;;;17.65;35.89;99317.69;4969721;28;20134;-70
2024/01/18 01:33:58;;;;;;;6.90;3.92;;;;;;;17.65;35.97;99333.50;4969406;28;20110;-70
2024/01/18 01:36:23;;;;;;;8.35;4.00;;;;;;;17.54;36.06;99318.78;4970144;28;20094;-70
2024/01/18 01:38:49;;;;;;;9.13;4.25;;;;;;;17.65;35.75;99349.31;4970441;28;20027;-70
2024/01/18 01:41:14;;;;;;;11.50;4.37;;;;;;;17.64;35.98;99350.28;4970267;28;20052;-70
2024/01/18 01:43:56;;;;;;;7.22;4.30;;;;;;;17.61;36.37;99343.53;4970256;28;20272;-70
2024/01/18 01:46:21;;;;;;;7.25;3.92;;;;;;;17.55;36.45;99336.25;4970669;28;20047;-70
2024/01/18 01:48:47;;;;;;;8.30;3.97;;;;;;;17.62;36.00;99349.63;4970222;28;20484;-70
2024/01/18 01:51:12;;;;;;;7.05;3.78;;;;;;;17.59;36.20;99350.75;4970551;28;20276;-71
2024/01/18 01:53:38;;;;;;;7.80;3.78;;;;;;;17.46;35.94;99324.84;4968961;28;20038;-68
2024/01/18 01:56:03;;;;;;;7.05;4.18;;;;;;;17.49;36.12;99339.53;4970212;28;20054;-69
2024/01/18 01:58:29;;;;;;;8.93;4.30;;;;;;;17.53;36.15;99346.97;4970232;28;20053;-68
2024/01/18 02:00:54;;;;;;;7.72;4.00;;;;;;;17.53;36.10;99343.47;4969728;28;20042;-68
2024/01/18 02:03:19;;;;;;;7.72;3.65;;;;;;;17.45;36.02;99335.53;4968047;28;20047;-69
2024/01/18 02:05:45;;;;;;;8.23;3.95;;;;;;;17.39;35.95;99329.91;4969561;28;20142;-69
2024/01/18 02:08:11;;;;;;;9.32;3.80;;;;;;;17.50;35.72;99351.69;4968611;28;20035;-69
2024/01/18 02:10:36;;;;;;;6.80;3.60;;;;;;;17.47;35.89;99342.31;4969265;28;20026;-69
2024/01/18 02:13:03;;;;;;;7.57;3.90;;;;;;;17.47;35.86;99352.03;4969481;28;20422;-68
2024/01/18 02:15:28;;;;;;;7.82;3.95;;;;;;;17.43;35.98;99340.97;4969247;28;20038;-70
2024/01/18 02:17:54;;;;;;;9.05;4.28;;;;;;;17.49;36.17;99353.50;4969188;28;20039;-69
2024/01/18 02:20:19;;;;;;;10.48;3.97;;;;;;;17.37;36.31;99333.69;4968913;28;20031;-68
2024/01/18 02:22:45;;;;;;;9.00;3.90;;;;;;;17.33;36.12;99329.72;4969535;28;20084;-69
2024/01/18 02:25:25;;;;;;;10.02;4.03;;;;;;;17.31;36.25;99319.34;4969724;28;20499;-68
2024/01/18 02:27:57;;;;;;;8.05;4.07;;;;;;;17.41;36.17;99337.66;4969667;28;20093;-69
2024/01/18 02:30:22;;;;;;;8.40;3.90;;;;;;;17.45;36.28;99348.72;4969372;28;20498;-69
2024/01/18 02:32:48;;;;;;;8.05;3.70;;;;;;;17.27;36.04;99322.44;4969594;28;20026;-69
2024/01/18 02:35:14;;;;;;;7.95;3.88;;;;;;;17.36;35.95;99343.41;4969421;28;20031;-69
2024/01/18 02:37:40;;;;;;;8.23;4.03;;;;;;;17.28;35.93;99330.19;4969552;28;20156;-69
2024/01/18 02:40:06;;;;;;;6.20;3.60;;;;;;;17.31;35.96;99345.69;4969285;28;20066;-70
2024/01/18 02:42:32;;;;;;;8.38;4.03;;;;;;;17.11;36.06;99315.28;4968889;28;20488;-70
2024/01/18 02:44:57;;;;;;;8.77;3.92;;;;;;;17.27;35.77;99336.44;4969317;28;20033;-69
2024/01/18 02:47:24;;;;;;;10.30;3.50;;;;;;;17.36;35.95;99361.00;4969439;28;20110;-69
2024/01/18 02:49:50;;;;;;;7.90;4.05;;;;;;;17.36;36.19;99368.91;4969212;28;20100;-70
2024/01/18 02:52:15;;;;;;;8.35;3.78;;;;;;;17.29;36.32;99359.97;4968929;28;20031;-69
2024/01/18 02:54:41;;;;;;;6.40;3.53;;;;;;;17.23;36.15;99350.91;4968123;28;20026;-69
2024/01/18 02:57:06;;;;;;;9.90;3.90;;;;;;;17.21;36.16;99352.84;4983192;28;20385;-69
2024/01/18 02:59:31;;;;;;;7.88;3.65;;;;;;;17.26;36.14;99358.50;4968218;28;20051;-68
2024/01/18 03:01:57;;;;;;;8.18;3.78;;;;;;;17.29;36.07;99363.44;4967388;28;20049;-68
2024/01/18 03:04:22;;;;;;;10.45;4.72;;;;;;;17.30;36.06;99372.16;4968561;28;20537;-69
2024/01/18 03:06:47;;;;;;;6.82;3.58;;;;;;;17.28;35.81;99382.03;4967868;28;20039;-69
2024/01/18 03:09:14;;;;;;;7.32;3.97;;;;;;;17.28;36.16;99377.59;4968541;28;20493;-69
2024/01/18 03:11:39;;;;;;;6.97;3.90;;;;;;;17.10;36.01;99348.69;4968680;28;20117;-69
2024/01/18 03:14:04;;;;;;;8.25;3.85;;;;;;;17.24;36.03;99373.59;4968742;28;20092;-69
2024/01/18 03:16:30;;;;;;;7.55;3.58;;;;;;;17.12;35.83;99349.34;4967667;28;20113;-69
2024/01/18 03:18:55;;;;;;;7.75;4.07;;;;;;;17.25;35.74;99375.25;4968217;28;20035;-69
2024/01/18 03:21:20;;;;;;;6.70;3.63;;;;;;;17.23;35.45;99385.94;4968563;28;20041;-69
2024/01/18 03:23:46;;;;;;;6.20;3.55;;;;;;;17.12;35.72;99369.59;4967775;28;20165;-69
2024/01/18 03:26:12;;;;;;;9.40;3.85;;;;;;;17.11;35.44;99367.91;4967737;28;20062;-68
2024/01/18 03:28:37;;;;;;;8.25;3.65;;;;;;;17.14;35.46;99370.25;4967743;28;20027;-69
2024/01/18 03:31:02;;;;;;;7.32;3.50;;;;;;;17.15;35.24;99375.34;4967566;28;20039;-68
2024/01/18 03:33:28;;;;;;;7.32;3.50;;;;;;;17.20;35.58;99388.88;4967708;28;20479;-69
2024/01/18 03:35:54;;;;;;;7.47;3.92;;;;;;;17.20;35.09;99393.31;4967442;28;20041;-69
2024/01/18 03:38:20;;;;;;;7.05;3.92;;;;;;;17.19;35.33;99383.78;4967494;28;20391;-69
2024/01/18 03:40:47;;;;;;;7.22;3.92;;;;;;;17.18;35.07;99382.94;4967677;28;20483;-69
2024/01/18 03:43:12;;;;;;;6.10;3.78;;;;;;;17.08;34.96;99371.66;4967509;28;20058;-70
2024/01/18 03:45:37;;;;;;;7.47;3.63;;;;;;;17.15;34.80;99385.06;4967530;28;20034;-69
2024/01/18 03:48:03;;;;;;;6.13;3.80;;;;;;;17.16;35.15;99398.06;4982388;28;20468;-69
2024/01/18 03:50:28;;;;;;;6.72;3.97;;;;;;;17.14;34.85;99399.19;4967375;28;20042;-69
2024/01/18 03:52:54;;;;;;;7.78;3.80;;;;;;;17.02;34.78;99375.75;4967787;28;20089;-69
2024/01/18 03:55:19;;;;;;;8.27;3.55;;;;;;;17.02;35.05;99388.06;4968014;28;20392;-69
2024/01/18 03:57:44;;;;;;;5.53;3.55;;;;;;;17.12;35.27;99411.69;4968259;28;20058;-69
2024/01/18 04:00:12;;;;;;;8.38;3.97;;;;;;;17.01;35.09;99395.16;4967845;28;20396;-69
2024/01/18 04:02:37;;;;;;;6.68;3.90;;;;;;;17.09;35.34;99415.47;4967304;28;20027;-68
2024/01/18 04:05:04;;;;;;;6.75;4.20;;;;;;;17.10;34.97;99422.38;4967934;28;20180;-69
2024/01/18 04:07:30;;;;;;;7.43;3.50;;;;;;;17.08;35.38;99407.72;4967950;28;20153;-69
2024/01/18 04:09:56;;;;;;;7.15;3.72;;;;;;;17.09;35.48;99407.56;4967714;28;20027;-68
2024/01/18 04:12:22;;;;;;;7.68;3.78;;;;;;;17.05;35.26;99411.47;4967960;28;20077;-69
2024/01/18 04:14:47;;;;;;;7.07;3.28;;;;;;;17.06;35.54;99410.50;4967994;28;20027;-69
2024/01/18 04:17:12;;;;;;;7.20;3.70;;;;;;;17.07;35.25;99413.94;4967577;28;20373;-69
2024/01/18 04:19:39;;;;;;;5.22;3.28;;;;;;;17.06;35.30;99420.19;4967602;28;20077;-69
2024/01/18 04:22:05;;;;;;;8.60;3.72;;;;;;;16.94;35.42;99398.53;4967827;28;20030;-68
2024/01/18 04:24:30;;;;;;;6.97;3.75;;;;;;;17.06;35.39;99420.19;4967770;28;20137;-69
2024/01/18 04:26:55;;;;;;;7.65;4.07;;;;;;;16.94;35.60;99409.91;4967646;28;20031;-70
2024/01/18 04:29:21;;;;;;;8.95;3.72;;;;;;;16.94;35.60;99403.81;4967955;28;20094;-69
2024/01/18 04:34:44;;;;;;;7.15;3.80;;;;;;;16.89;35.49;99409.50;4968149;23;20067;-69
2024/01/18 04:37:11;;;;;;;7.25;3.45;;;;;;;17.01;35.76;99437.25;4951443;29;20031;-68
2024/01/18 04:39:36;;;;;;;7.40;3.60;;;;;;;17.01;35.77;99428.56;4951699;29;20118;-67
2024/01/18 04:42:01;;;;;;;6.40;3.40;;;;;;;16.91;35.41;99418.09;4952049;29;20068;-68
2024/01/18 04:44:26;;;;;;;9.57;3.60;;;;;;;17.03;35.82;99451.09;4952268;29;20042;-67
2024/01/18 04:46:52;;;;;;;6.65;3.20;;;;;;;16.90;35.84;99431.41;4950911;29;20027;-66
2024/01/18 04:49:17;;;;;;;6.03;3.38;;;;;;;16.90;35.76;99439.31;4951808;29;20098;-66
2024/01/18 04:51:42;;;;;;;6.20;3.20;;;;;;;16.98;35.72;99455.16;4952068;29;20050;-68
2024/01/18 04:54:08;;;;;;;8.18;3.58;;;;;;;16.97;35.38;99454.34;4951746;29;20106;-68
2024/01/18 04:56:35;;;;;;;5.70;3.13;;;;;;;16.94;35.58;99449.38;4951744;29;20180;-68
2024/01/18 04:59:01;;;;;;;5.60;3.20;;;;;;;17.02;35.70;99473.16;4952040;28;20039;-68
2024/01/18 05:01:26;;;;;;;8.30;3.17;;;;;;;16.93;35.36;99471.41;4951221;28;20043;-68
2024/01/18 05:03:51;;;;;;;7.20;3.45;;;;;;;16.91;35.75;99464.63;4948890;29;20514;-67
2024/01/18 05:06:17;;;;;;;7.57;3.83;;;;;;;16.94;35.55;99473.06;4951388;29;20031;-68
2024/01/18 05:08:42;;;;;;;7.68;3.22;;;;;;;17.03;35.38;99485.31;4950069;29;20039;-68
2024/01/18 05:11:07;;;;;;;7.78;3.50;;;;;;;16.97;35.51;99477.19;4951284;29;20102;-69
2024/01/18 05:13:33;;;;;;;6.85;3.53;;;;;;;16.98;35.48;99478.84;4949870;29;20306;-68
2024/01/18 05:16:00;;;;;;;7.53;3.35;;;;;;;17.04;35.63;99483.53;4951134;29;20082;-68
2024/01/18 05:18:26;;;;;;;6.03;3.40;;;;;;;16.93;35.55;99474.03;4951141;29;20484;-70
2024/01/18 05:20:51;;;;;;;8.05;3.42;;;;;;;16.94;35.41;99456.44;4951085;29;20031;-67
2024/01/18 05:23:16;;;;;;;9.82;3.35;;;;;;;17.08;35.46;99484.03;4950865;29;21271;-68
2024/01/18 05:25:41;;;;;;;8.30;3.30;;;;;;;17.00;35.30;99476.91;4951290;29;20054;-69
2024/01/18 05:28:07;;;;;;;7.22;3.72;;;;;;;16.98;35.69;99466.50;4950941;28;20617;-69
2024/01/18 05:30:32;;;;;;;8.88;3.10;;;;;;;17.09;36.07;99490.97;4951152;29;20035;-68
2024/01/18 05:32:58;;;;;;;8.05;3.10;;;;;;;17.11;36.31;99489.00;4950022;29;20055;-68
2024/01/18 05:35:24;;;;;;;6.50;2.50;;;;;;;17.01;36.62;99475.94;4951259;29;20098;-67
2024/01/18 05:37:49;;;;;;;6.35;2.47;;;;;;;17.07;36.85;99483.22;4950517;29;20082;-69
2024/01/18 05:40:15;;;;;;;7.53;2.85;;;;;;;17.23;37.61;99506.25;4951111;29;20475;-69
2024/01/18 05:42:40;;;;;;;5.85;2.65;;;;;;;17.18;37.93;99490.03;4951165;28;20107;-70
2024/01/18 05:45:06;;;;;;;6.25;2.22;;;;;;;17.36;37.61;99516.38;4951182;29;20047;-67
2024/01/18 05:47:31;;;;;;;6.07;2.10;;;;;;;17.36;37.96;99509.31;4945797;28;20028;-69
2024/01/18 05:49:56;;;;;;;5.15;2.03;;;;;;;17.34;37.72;99505.16;4950706;29;20035;-68
2024/01/18 05:52:22;;;;;;;7.35;2.22;;;;;;;17.39;38.11;99508.19;4950354;29;20122;-69
2024/01/18 05:54:48;;;;;;;7.35;2.15;;;;;;;17.39;37.80;99511.63;4950703;28;20134;-68
2024/01/18 05:57:14;;;;;;;4.72;2.38;;;;;;;17.44;37.77;99513.81;4949387;29;20439;-68
2024/01/18 05:59:39;;;;;;;4.55;2.17;;;;;;;17.56;37.86;99530.19;4950323;29;20031;-67
2024/01/18 06:02:04;;;;;;;7.40;2.40;;;;;;;17.60;37.88;99539.47;4949033;29;20027;-69
2024/01/18 06:04:30;;;;;;;5.03;2.05;;;;;;;17.54;37.61;99527.72;4949611;29;20031;-67
2024/01/18 06:06:56;;;;;;;6.00;2.22;;;;;;;17.59;37.66;99538.66;4950491;29;20027;-67
2024/01/18 06:09:22;;;;;;;4.57;2.00;;;;;;;17.63;37.64;99546.25;4950303;28;20027;-69
2024/01/18 06:11:48;;;;;;;5.45;2.60;;;;;;;17.65;37.95;99544.28;4950482;29;20137;-67
2024/01/18 06:14:15;;;;;;;6.38;2.20;;;;;;;17.67;37.98;99548.38;4950477;28;20035;-68
2024/01/18 06:16:41;;;;;;;6.15;2.20;;;;;;;17.57;37.49;99534.50;4950199;28;20383;-69
2024/01/18 06:19:06;;;;;;;5.95;2.20;;;;;;;17.46;37.45;99529.47;4950461;28;20082;-69
2024/01/18 06:21:31;;;;;;;7.30;2.13;;;;;;;17.68;37.62;99565.88;4949556;29;20033;-69
2024/01/18 06:23:57;;;;;;;4.93;2.17;;;;;;;17.70;37.48;99574.44;4950496;29;20439;-68
2024/01/18 06:26:22;;;;;;;6.32;2.20;;;;;;;17.72;37.51;99580.41;4950359;28;20042;-68
2024/01/18 06:28:47;;;;;;;6.30;2.40;;;;;;;17.69;37.32;99575.44;4950261;29;20387;-69
2024/01/18 06:31:13;;;;;;;5.97;2.20;;;;;;;17.58;37.17;99570.41;4949000;29;20035;-68
2024/01/18 06:33:39;;;;;;;5.38;2.30;;;;;;;17.63;36.96;99575.22;4949666;29;20383;-69
2024/01/18 06:36:05;;;;;;;5.85;2.03;;;;;;;17.70;37.30;99592.88;4949921;29;20031;-69
2024/01/18 06:38:30;;;;;;;5.28;2.08;;;;;;;17.70;37.50;99586.78;4950113;28;20031;-68
2024/01/18 06:40:58;;;;;;;7.68;2.20;;;;;;;17.75;37.82;99600.34;4949961;29;20039;-69
2024/01/18 06:43:25;;;;;;;6.28;2.45;;;;;;;17.63;37.56;99577.84;4949738;29;20391;-68
2024/01/18 06:45:54;;;;;;;6.80;2.10;;;;;;;17.76;37.56;99599.38;4949982;28;20862;-69
2024/01/18 06:48:20;;;;;;;6.78;2.13;;;;;;;17.78;37.57;99602.66;4950000;29;20035;-68
2024/01/18 06:50:45;;;;;;;7.35;2.20;;;;;;;17.66;37.49;99593.38;4950040;28;20034;-69
2024/01/18 06:53:11;;;;;;;5.40;2.30;;;;;;;17.77;37.28;99607.13;4949653;28;20058;-69
2024/01/18 06:55:36;;;;;;;5.28;2.13;;;;;;;17.65;37.28;99586.44;4947344;29;20035;-68
2024/01/18 06:58:02;;;;;;;4.75;1.98;;;;;;;17.72;37.42;99603.28;4948725;29;20101;-69
2024/01/18 07:00:27;;;;;;;4.95;2.05;;;;;;;17.68;37.33;99604.56;4948774;29;20416;-69
2024/01/18 07:02:53;;;;;;;6.15;2.10;;;;;;;17.79;37.16;99620.16;4947086;28;20027;-69
2024/01/18 07:05:19;;;;;;;5.88;2.10;;;;;;;17.66;36.86;99603.91;4949034;29;20116;-69
2024/01/18 07:07:44;;;;;;;6.32;2.13;;;;;;;17.80;37.18;99632.34;4949234;28;20027;-69
2024/01/18 07:10:10;;;;;;;5.82;2.33;;;;;;;17.69;36.62;99614.97;4949627;29;20027;-69
2024/01/18 07:12:36;;;;;;;5.82;2.35;;;;;;;17.70;36.83;99621.06;4949491;29;20050;-68
2024/01/18 07:15:01;;;;;;;4.93;2.28;;;;;;;17.79;36.47;99640.41;4949631;28;20122;-67
2024/01/18 07:17:26;;;;;;;5.95;2.08;;;;;;;17.73;37.25;99626.84;4949202;29;20476;-69
2024/01/18 07:19:52;;;;;;;6.30;2.20;;;;;;;17.80;37.32;99642.91;4949202;29;20037;-68
2024/01/18 07:22:18;;;;;;;7.38;2.13;;;;;;;17.79;37.38;99637.78;4948937;29;20039;-68
2024/01/18 07:24:43;;;;;;;5.88;1.95;;;;;;;17.66;37.57;99619.72;4946716;28;20027;-68
2024/01/18 07:27:09;;;;;;;5.63;1.75;;;;;;;17.69;37.80;99620.22;4948695;29;20460;-67
2024/01/18 07:29:36;;;;;;;4.57;1.75;;;;;;;17.80;37.38;99642.03;4949159;29;20035;-68
2024/01/18 07:32:01;;;;;;;5.70;1.90;;;;;;;17.73;37.26;99642.66;4948604;28;20031;-67
2024/01/18 07:34:27;;;;;;;5.57;1.90;;;;;;;17.83;37.24;99662.81;4948884;29;20054;-68
2024/01/18 07:36:52;;;;;;;5.53;2.17;;;;;;;17.79;37.22;99666.75;4949141;29;20039;-67
2024/01/18 07:39:18;;;;;;;5.57;2.05;;;;;;;17.82;37.05;99669.91;4948884;29;20460;-69
2024/01/18 07:41:44;;;;;;;4.97;2.30;;;;;;;17.77;36.41;99664.28;4948911;29;20035;-67
2024/01/18 07:44:09;;;;;;;5.50;2.38;;;;;;;17.69;36.91;99659.75;4947562;29;20123;-68
2024/01/18 07:46:35;;;;;;;7.18;2.80;;;;;;;17.77;36.09;99683.53;4947950;28;20034;-69
2024/01/18 07:49:01;;;;;;;8.07;2.97;;;;;;;17.71;36.35;99664.88;4946363;29;20035;-69
2024/01/18 07:51:27;;;;;;;5.65;2.50;;;;;;;17.68;36.09;99667.81;4948868;29;20086;-70
2024/01/18 07:53:53;;;;;;;5.35;2.20;;;;;;;17.80;36.28;99697.38;4947605;29;20039;-67
2024/01/18 07:56:18;;;;;;;5.40;2.30;;;;;;;17.78;36.63;99700.16;4946699;29;20046;-69
2024/01/18 07:58:43;;;;;;;5.38;2.15;;;;;;;17.72;36.78;99691.06;4947932;29;20038;-68
2024/01/18 08:01:09;;;;;;;8.38;2.20;;;;;;;17.70;37.44;99703.56;4945563;29;20033;-68
2024/01/18 08:03:34;;;;;;;6.85;2.10;;;;;;;17.70;37.43;99702.72;4946479;29;20050;-69
2024/01/18 08:05:59;;;;;;;6.80;2.40;;;;;;;17.75;37.30;99719.75;4946662;28;20089;-69
2024/01/18 08:08:25;;;;;;;4.90;1.90;;;;;;;17.77;37.43;99727.53;4946889;29;20039;-69
2024/01/18 08:10:50;;;;;;;4.22;1.98;;;;;;;17.69;37.52;99715.09;4947850;29;20265;-68
2024/01/18 08:13:15;;;;;;;4.65;2.15;;;;;;;17.83;37.25;99737.47;4948645;29;20036;-68
2024/01/18 08:15:41;;;;;;;5.60;2.38;;;;;;;17.81;37.32;99734.13;4948547;29;20369;-67
2024/01/18 08:18:06;;;;;;;5.65;2.22;;;;;;;17.72;37.29;99720.06;4948467;29;20095;-68
2024/01/18 08:20:32;;;;;;;6.53;2.22;;;;;;;17.75;37.49;99725.03;4948541;28;20146;-68
2024/01/18 08:22:57;;;;;;;6.47;2.20;;;;;;;17.86;37.31;99749.50;4948224;28;20032;-67
2024/01/18 08:25:22;;;;;;;5.55;2.20;;;;;;;17.71;37.26;99720.22;4948184;29;20028;-69
2024/01/18 08:27:48;;;;;;;7.10;1.83;;;;;;;17.81;37.62;99747.31;4946619;29;20175;-70
2024/01/18 08:30:13;;;;;;;5.75;2.00;;;;;;;17.77;37.72;99745.97;4947733;29;20054;-70
2024/01/18 08:32:38;;;;;;;7.07;2.33;;;;;;;17.82;37.18;99756.88;4947355;29;20027;-70
2024/01/18 08:35:06;;;;;;;7.32;2.30;;;;;;;17.73;37.32;99745.41;4947647;29;20031;-68
2024/01/18 08:37:35;;;;;;;7.22;2.35;;;;;;;17.84;37.52;99765.47;4947514;28;20042;-70
2024/01/18 08:40:02;;;;;;;7.55;2.55;;;;;;;17.73;37.51;99752.50;4947604;29;20036;-68
2024/01/18 08:42:27;;;;;;;6.80;2.17;;;;;;;17.75;37.82;99761.94;4947588;28;20372;-70
2024/01/18 08:44:52;;;;;;;5.25;2.25;;;;;;;17.80;38.46;99776.44;4947643;29;20046;-70
2024/01/18 08:47:18;;;;;;;8.50;2.17;;;;;;;17.81;38.38;99780.75;4946234;29;20071;-69
2024/01/18 08:49:43;;;;;;;6.22;2.30;;;;;;;17.85;38.35;99793.50;4943674;29;20031;-69
2024/01/18 08:52:08;;;;;;;5.65;2.10;;;;;;;17.86;38.53;99784.59;4946543;29;20042;-68
2024/01/18 08:54:33;;;;;;;7.57;2.50;;;;;;;17.80;37.71;99779.09;4944215;29;20027;-69
2024/01/18 08:56:59;;;;;;;5.38;2.03;;;;;;;17.79;38.29;99788.00;4946063;29;20035;-69
2024/01/18 08:59:24;;;;;;;5.05;2.10;;;;;;;17.86;39.15;99796.94;4947214;29;20556;-69
2024/01/18 09:01:50;;;;;;;7.40;2.17;;;;;;;17.88;39.37;99801.13;4946248;29;20142;-70
2024/01/18 09:04:16;;;;;;;6.82;1.90;;;;;;;17.99;39.67;99813.28;4945940;28;20042;-68
2024/01/18 09:06:42;;;;;;;5.00;1.95;;;;;;;18.06;40.49;99822.25;4947883;28;20035;-70
2024/01/18 09:09:11;;;;;;;5.43;1.85;;;;;;;18.07;40.62;99831.81;4947964;28;20059;-68
2024/01/18 09:11:37;;;;;;;5.93;1.98;;;;;;;17.97;40.72;99811.75;4947871;29;20094;-71
2024/01/18 09:14:03;;;;;;;7.15;2.30;;;;;;;18.00;40.89;99806.19;4948042;29;20031;-70
2024/01/18 09:16:30;;;;;;;8.75;2.42;;;;;;;18.13;41.01;99827.75;4948377;28;20111;-70
2024/01/18 09:18:56;;;;;;;6.60;2.20;;;;;;;18.12;41.18;99834.84;4947277;29;20041;-68
2024/01/18 09:21:21;;;;;;;7.28;2.33;;;;;;;18.12;41.44;99836.66;4950183;29;20121;-67
2024/01/18 09:23:46;;;;;;;6.50;2.00;;;;;;;18.13;41.59;99846.19;4950568;29;20463;-69
2024/01/18 09:26:12;;;;;;;6.78;2.17;;;;;;;18.17;41.67;99862.56;4950831;29;20459;-69
2024/01/18 09:28:37;;;;;;;8.07;2.03;;;;;;;18.03;41.73;99838.34;4949318;29;20035;-69
2024/01/18 09:31:02;;;;;;;6.43;2.30;;;;;;;18.14;41.59;99861.06;4950584;29;20027;-68
2024/01/18 09:33:27;;;;;;;6.47;2.60;;;;;;;18.05;41.68;99849.56;4949749;29;20825;-69
2024/01/18 09:35:53;;;;;;;6.78;2.55;;;;;;;18.14;41.63;99866.31;4950799;29;20039;-68
2024/01/18 09:38:19;;;;;;;8.85;2.50;;;;;;;18.04;41.54;99855.84;4949786;29;20122;-69
2024/01/18 09:40:45;;;;;;;6.85;2.33;;;;;;;18.12;41.56;99882.28;4950913;29;20110;-68
2024/01/18 09:43:14;;;;;;;6.30;2.03;;;;;;;18.06;41.69;99874.16;4951091;28;20031;-68
2024/01/18 09:45:42;;;;;;;6.30;2.22;;;;;;;18.15;41.75;99904.91;4951528;28;20023;-67
2024/01/18 09:48:08;;;;;;;6.75;2.50;;;;;;;18.09;42.08;99895.78;4946984;29;20039;-67
2024/01/18 09:50:41;;;;;;;7.35;2.80;;;;;;;18.07;42.39;99903.00;4951044;29;20042;-68
2024/01/18 09:53:07;;;;;;;6.82;2.35;;;;;;;18.12;42.07;99911.31;4950375;28;20047;-69
2024/01/18 09:55:39;;;;;;;6.95;1.90;;;;;;;18.04;42.18;99903.31;4947173;28;20046;-67
2024/01/18 09:58:11;;;;;;;6.32;1.80;;;;;;;18.16;42.38;99917.09;4949722;28;20546;-66
2024/01/18 10:00:58;;;;;;;7.30;2.13;;;;;;;18.17;42.31;99921.41;4950469;28;20037;-67
2024/01/18 10:03:24;;;;;;;5.88;1.90;;;;;;;18.13;42.45;99922.66;4949688;28;20115;-67
2024/01/18 10:05:50;;;;;;;8.07;2.47;;;;;;;18.10;42.34;99922.97;4950597;28;20126;-67
2024/01/18 10:08:15;;;;;;;7.93;2.03;;;;;;;18.08;42.39;99927.56;4950401;29;20036;-68
2024/01/18 10:10:42;;;;;;;6.57;1.85;;;;;;;18.09;42.35;99934.50;4949581;29;20486;-69
2024/01/18 10:13:11;;;;;;;6.18;1.95;;;;;;;18.19;42.29;99958.19;4950858;28;20039;-68
2024/01/18 10:15:36;;;;;;;6.13;1.90;;;;;;;18.11;42.34;99945.72;4949166;28;20050;-69
2024/01/18 10:18:03;;;;;;;8.20;1.65;;;;;;;18.21;42.73;99972.88;4949019;29;20035;-69
2024/01/18 10:20:29;;;;;;;5.95;1.90;;;;;;;18.07;42.50;99949.63;4949675;28;20495;-68
2024/01/18 10:22:57;;;;;;;8.43;2.15;;;;;;;18.21;42.83;99970.22;4948861;29;20035;-68
2024/01/18 10:25:25;;;;;;;8.07;1.80;;;;;;;18.23;42.77;99978.84;4949432;29;20105;-68
2024/01/18 10:27:54;;;;;;;5.47;1.90;;;;;;;18.24;42.64;99975.22;4949383;28;20043;-69
2024/01/18 10:30:21;;;;;;;5.10;1.73;;;;;;;18.20;42.81;99971.22;4949550;28;20027;-68
2024/01/18 10:32:47;;;;;;;6.18;1.70;;;;;;;18.27;42.38;99982.00;4949337;28;20491;-69
2024/01/18 10:35:20;;;;;;;5.15;1.70;;;;;;;18.26;42.87;99990.88;4949484;28;20547;-69
2024/01/18 10:37:46;;;;;;;7.07;1.95;;;;;;;18.28;42.53;99988.97;4950308;28;20043;-69
2024/01/18 10:40:17;;;;;;;7.00;1.52;;;;;;;18.29;42.38;99995.88;4949208;28;20047;-69
2024/01/18 10:42:44;;;;;;;7.20;1.83;;;;;;;18.16;42.59;99976.94;4949979;28;20605;-68
2024/01/18 10:45:11;;;;;;;6.38;1.92;;;;;;;18.11;42.86;99970.28;4948718;28;20396;-69
2024/01/18 10:47:37;;;;;;;5.80;1.63;;;;;;;18.15;42.90;99980.53;4950049;28;20166;-70
2024/01/18 10:50:03;;;;;;;8.73;1.73;;;;;;;18.25;43.13;99989.25;4949214;28;20132;-69
2024/01/18 10:52:30;;;;;;;7.60;2.00;;;;;;;18.30;43.07;99998.38;4950050;29;20134;-69
2024/01/18 10:54:58;;;;;;;6.80;1.85;;;;;;;18.25;42.33;99995.34;4948820;28;20115;-69
2024/01/18 10:57:23;;;;;;;3.90;1.58;;;;;;;18.15;42.08;99986.66;4948924;28;20039;-71
2024/01/18 10:59:51;;;;;;;6.60;1.60;;;;;;;18.26;41.75;100015.47;4948789;29;20046;-70
2024/01/18 11:02:17;;;;;;;3.78;1.58;;;;;;;18.17;41.71;99992.63;4947288;29;20039;-71
2024/01/18 11:04:45;;;;;;;5.70;1.50;;;;;;;18.24;41.65;100008.69;4948250;28;20031;-70
2024/01/18 11:07:10;;;;;;;7.60;2.10;;;;;;;18.24;41.66;100020.03;4949291;28;20043;-71
2024/01/18 11:09:36;;;;;;;6.45;2.08;;;;;;;18.05;41.69;99994.59;4948817;28;20023;-71
2024/01/18 11:12:03;;;;;;;6.95;1.75;;;;;;;18.11;41.22;100012.47;4949500;29;20039;-71
2024/01/18 11:14:29;;;;;;;6.32;1.63;;;;;;;18.22;41.07;100029.09;4948681;28;20085;-71
2024/01/18 11:16:59;;;;;;;6.22;1.40;;;;;;;18.15;41.36;100022.72;4949355;28;20114;-70
2024/01/18 11:19:44;;;;;;;6.40;1.42;;;;;;;18.11;41.23;100017.75;4948879;28;20779;-71
2024/01/18 11:22:30;;;;;;;5.65;1.70;;;;;;;18.11;41.20;100024.81;4949343;28;20039;-70
2024/01/18 11:25:07;;;;;;;6.07;1.50;;;;;;;18.07;40.81;100020.81;4942624;29;20031;-72
2024/01/18 11:27:42;;;;;;;7.28;1.90;;;;;;;18.12;40.98;100021.22;4948683;28;20101;-72
2024/01/18 11:30:10;;;;;;;5.57;1.70;;;;;;;18.20;40.77;100047.69;4947460;28;20031;-69
2024/01/18 11:32:37;;;;;;;8.10;2.53;;;;;;;18.08;40.89;100031.22;4947878;29;20123;-70